createdAt,value
2022-11-04T00:01:05.713Z,100913.13
2022-11-04T00:03:34.048Z,100914.94
2022-11-04T00:06:02.106Z,100917.47
2022-11-04T00:08:30.387Z,100915.25
2022-11-04T00:11:19.044Z,100919.72
2022-11-04T00:13:48.592Z,100928.09
2022-11-04T00:16:34.729Z,100929.09
2022-11-04T00:19:02.809Z,100921.97
2022-11-04T00:21:49.133Z,100924.84
2022-11-04T00:24:35.234Z,100921.13
2022-11-04T00:27:21.160Z,100921.66
2022-11-04T00:29:48.777Z,100925.69
2022-11-04T00:32:34.882Z,100928.25
2022-11-04T00:35:02.565Z,100924.66
2022-11-04T00:37:30.520Z,100925.41
2022-11-04T00:40:01.777Z,100918.25
2022-11-04T00:42:30.255Z,100926.84
2022-11-04T00:44:57.983Z,100918.56
2022-11-04T00:47:26.113Z,100926.38
2022-11-04T00:49:53.848Z,100915.00
2022-11-04T00:52:22.318Z,100914.84
2022-11-04T00:54:50.040Z,100911.28
2022-11-04T00:57:18.147Z,100911.84
2022-11-04T00:59:46.102Z,100916.53
2022-11-04T01:02:14.154Z,100919.41
2022-11-04T01:04:42.045Z,100929.09
2022-11-04T01:07:09.688Z,100929.47
2022-11-04T01:09:37.405Z,100924.44
2022-11-04T01:12:05.265Z,100934.97
2022-11-04T01:14:33.008Z,100926.84
2022-11-04T01:17:01.912Z,100933.81
2022-11-04T01:19:30.232Z,100930.06
2022-11-04T01:21:58.153Z,100930.94
2022-11-04T01:24:26.322Z,100930.78
2022-11-04T01:26:54.357Z,100931.16
2022-11-04T01:29:22.054Z,100925.28
2022-11-04T01:31:51.388Z,100932.22
2022-11-04T01:34:19.051Z,100939.81
2022-11-04T01:36:48.007Z,100937.41
2022-11-04T01:39:15.706Z,100937.75
2022-11-04T01:41:43.419Z,100941.41
2022-11-04T01:44:42.984Z,100939.00
2022-11-04T01:47:38.567Z,100937.44
2022-11-04T01:50:23.438Z,100936.06
2022-11-04T01:52:59.705Z,100933.97
2022-11-04T01:55:29.248Z,100940.53
2022-11-04T01:58:00.194Z,100943.97
2022-11-04T02:00:27.797Z,100938.09
2022-11-04T02:03:24.928Z,100949.06
2022-11-04T02:05:53.028Z,100944.81
2022-11-04T02:08:21.348Z,100938.88
2022-11-04T02:10:58.404Z,100928.88
2022-11-04T02:13:27.624Z,100925.78
2022-11-04T02:16:11.338Z,100936.75
2022-11-04T02:18:52.443Z,100941.03
2022-11-04T02:21:45.603Z,100947.69
2022-11-04T02:24:16.103Z,100948.28
2022-11-04T02:26:48.031Z,100957.19
2022-11-04T02:29:34.727Z,100950.47
2022-11-04T02:32:50.041Z,100965.28
2022-11-04T02:35:27.098Z,100972.09
2022-11-04T02:37:54.805Z,100964.50
2022-11-04T02:40:25.672Z,100965.66
2022-11-04T02:43:12.872Z,100955.44
2022-11-04T02:45:47.307Z,100954.88
2022-11-04T02:48:24.460Z,100956.91
2022-11-04T02:51:00.299Z,100965.72
2022-11-04T02:53:31.840Z,100962.19
2022-11-04T02:55:59.616Z,100961.16
2022-11-04T02:58:38.310Z,100968.59
2022-11-04T03:01:06.095Z,100972.16
2022-11-04T03:03:41.625Z,100977.03
2022-11-04T03:06:10.507Z,100973.78
2022-11-04T03:08:41.376Z,100973.22
2022-11-04T03:11:12.515Z,100973.00
2022-11-04T03:13:44.721Z,100968.28
2022-11-04T03:16:15.937Z,100970.72
2022-11-04T03:19:01.800Z,100973.38
2022-11-04T03:21:31.643Z,100971.09
2022-11-04T03:23:59.488Z,100971.66
2022-11-04T03:26:37.513Z,100967.50
2022-11-04T03:29:23.545Z,100969.34
2022-11-04T03:32:01.000Z,100971.59
2022-11-04T03:34:28.909Z,100975.00
2022-11-04T03:36:56.899Z,100972.28
2022-11-04T03:39:27.825Z,100982.81
2022-11-04T03:42:00.534Z,100979.25
2022-11-04T03:44:29.713Z,100976.72
2022-11-04T03:46:57.750Z,100975.00
2022-11-04T03:49:25.948Z,100980.28
2022-11-04T03:51:53.910Z,100989.56
2022-11-04T03:54:21.723Z,100980.75
2022-11-04T03:57:05.106Z,100987.91
2022-11-04T03:59:48.250Z,100982.03
2022-11-04T04:02:23.603Z,100990.31
2022-11-04T04:05:01.139Z,100992.19
2022-11-04T04:07:40.576Z,100989.63
2022-11-04T04:10:33.698Z,100986.34
2022-11-04T04:13:02.626Z,100988.91
2022-11-04T04:15:37.209Z,100994.31
2022-11-04T04:18:08.292Z,100986.34
2022-11-04T04:20:36.807Z,100990.22
2022-11-04T04:23:49.740Z,100997.66
2022-11-04T04:26:36.458Z,101005.78
2022-11-04T04:29:05.035Z,100996.09
2022-11-04T04:31:51.645Z,100995.84
2022-11-04T04:34:30.742Z,101003.66
2022-11-04T04:37:16.613Z,100996.00
2022-11-04T04:40:14.382Z,101004.34
2022-11-04T04:43:00.845Z,101008.22
2022-11-04T04:45:33.628Z,101018.91
2022-11-04T04:48:01.293Z,101022.22
2022-11-04T04:50:31.942Z,101017.66
2022-11-04T04:52:59.661Z,101012.34
2022-11-04T04:55:27.215Z,101018.81
2022-11-04T04:57:55.253Z,101024.22
2022-11-04T05:00:23.307Z,101025.63
2022-11-04T05:02:51.630Z,101030.03
2022-11-04T05:05:19.476Z,101026.78
2022-11-04T05:07:47.873Z,101031.66
2022-11-04T05:10:16.281Z,101036.91
2022-11-04T05:13:03.218Z,101041.13
2022-11-04T05:15:31.294Z,101043.81
2022-11-04T05:18:00.217Z,101045.31
2022-11-04T05:20:29.166Z,101051.41
2022-11-04T05:22:58.359Z,101051.66
2022-11-04T05:25:26.144Z,101058.53
2022-11-04T05:27:53.765Z,101054.94
2022-11-04T05:30:21.732Z,101061.34
2022-11-04T05:32:49.502Z,101070.78
2022-11-04T05:35:17.666Z,101063.47
2022-11-04T05:37:45.476Z,101071.72
2022-11-04T05:40:13.316Z,101070.56
2022-11-04T05:42:41.129Z,101080.25
2022-11-04T05:45:09.301Z,101078.97
2022-11-04T05:47:37.143Z,101073.09
2022-11-04T05:50:06.511Z,101089.00
2022-11-04T05:52:34.469Z,101093.31
2022-11-04T05:55:03.085Z,101092.47
2022-11-04T05:57:31.032Z,101088.69
2022-11-04T05:59:59.056Z,101094.75
2022-11-04T06:02:27.000Z,101101.25
2022-11-04T06:04:54.847Z,101094.69
2022-11-04T06:07:22.454Z,101102.22
2022-11-04T06:09:50.033Z,101106.72
2022-11-04T06:12:17.720Z,101101.53
2022-11-04T06:14:48.090Z,101101.84
2022-11-04T06:17:17.058Z,101097.69
2022-11-04T06:19:45.092Z,101102.56
2022-11-04T06:22:15.511Z,101102.81
2022-11-04T06:24:43.893Z,101111.94
2022-11-04T06:27:12.190Z,101102.63
2022-11-04T06:29:41.365Z,101098.06
2022-11-04T06:32:13.871Z,101103.69
2022-11-04T06:34:41.786Z,101104.72
2022-11-04T06:37:10.072Z,101101.31
2022-11-04T06:39:38.434Z,101107.94
2022-11-04T06:42:06.202Z,101110.19
2022-11-04T06:44:35.209Z,101104.28
2022-11-04T06:47:03.839Z,101104.97
2022-11-04T06:49:32.487Z,101116.44
2022-11-04T06:52:02.658Z,101102.81
2022-11-04T06:54:30.650Z,101111.50
2022-11-04T06:56:58.663Z,101123.38
2022-11-04T06:59:26.916Z,101116.13
2022-11-04T07:01:54.980Z,101112.44
2022-11-04T07:04:23.552Z,101113.25
2022-11-04T07:06:51.520Z,101105.19
2022-11-04T07:09:22.369Z,101115.06
2022-11-04T07:11:51.272Z,101122.72
2022-11-04T07:14:19.298Z,101108.97
2022-11-04T07:16:50.425Z,101115.78
2022-11-04T07:19:18.210Z,101126.72
2022-11-04T07:21:45.965Z,101124.00
2022-11-04T07:24:13.885Z,101131.47
2022-11-04T07:26:43.363Z,101129.78
2022-11-04T07:29:11.392Z,101125.22
2022-11-04T07:31:39.121Z,101124.38
2022-11-04T07:34:07.043Z,101126.06
2022-11-04T07:36:34.793Z,101136.47
2022-11-04T07:39:02.705Z,101127.44
2022-11-04T07:41:30.462Z,101125.13
2022-11-04T07:43:59.312Z,101130.91
2022-11-04T07:46:27.111Z,101126.66
2022-11-04T07:48:58.317Z,101137.53
2022-11-04T07:51:26.488Z,101148.91
2022-11-04T07:53:55.681Z,101155.50
2022-11-04T07:56:24.278Z,101152.34
2022-11-04T07:58:52.748Z,101157.56
2022-11-04T08:01:23.556Z,101147.34
2022-11-04T08:03:51.681Z,101163.16
2022-11-04T08:06:20.396Z,101157.41
2022-11-04T08:08:48.966Z,101150.16
2022-11-04T08:11:19.246Z,101155.31
2022-11-04T08:13:47.287Z,101151.19
2022-11-04T08:16:19.904Z,101154.78
2022-11-04T08:18:50.426Z,101157.63
2022-11-04T08:21:18.011Z,101168.41
2022-11-04T08:23:51.600Z,101164.63
2022-11-04T08:26:19.740Z,101162.66
2022-11-04T08:28:47.881Z,101166.41
2022-11-04T08:31:24.090Z,101156.69
2022-11-04T08:33:52.492Z,101178.47
2022-11-04T08:36:21.034Z,101175.25
2022-11-04T08:38:48.918Z,101173.66
2022-11-04T08:41:19.684Z,101166.22
2022-11-04T08:43:47.702Z,101170.25
2022-11-04T08:46:15.419Z,101163.75
2022-11-04T08:48:43.449Z,101174.84
2022-11-04T08:51:14.766Z,101183.56
2022-11-04T08:53:43.649Z,101182.16
2022-11-04T08:56:23.604Z,101172.03
2022-11-04T08:58:51.524Z,101175.13
2022-11-04T09:01:19.365Z,101176.84
2022-11-04T09:03:47.063Z,101176.56
2022-11-04T09:06:28.766Z,101175.56
2022-11-04T09:08:58.527Z,101161.34
2022-11-04T09:11:26.091Z,101167.09
2022-11-04T09:13:53.690Z,101163.47
2022-11-04T09:16:21.300Z,101166.69
2022-11-04T09:19:09.047Z,101167.09
2022-11-04T09:21:37.277Z,101172.66
2022-11-04T09:24:06.219Z,101186.47
2022-11-04T09:26:36.168Z,101183.59
2022-11-04T09:29:04.187Z,101172.69
2022-11-04T09:31:32.333Z,101178.84
2022-11-04T09:34:00.060Z,101167.28
2022-11-04T09:36:29.321Z,101174.97
2022-11-04T09:38:57.332Z,101170.06
2022-11-04T09:41:35.656Z,101157.44
2022-11-04T09:44:29.307Z,101171.44
2022-11-04T09:46:59.129Z,101168.69
2022-11-04T09:49:28.314Z,101171.06
2022-11-04T09:51:56.439Z,101158.81
2022-11-04T09:54:33.695Z,101156.25
2022-11-04T09:57:01.698Z,101154.19
2022-11-04T09:59:32.037Z,101161.72
2022-11-04T10:02:05.642Z,101154.84
2022-11-04T10:04:48.672Z,101158.41
2022-11-04T10:07:16.823Z,101154.34
2022-11-04T10:09:50.739Z,101167.97
2022-11-04T10:12:43.370Z,101167.09
2022-11-04T10:15:38.669Z,101162.66
2022-11-04T10:18:24.829Z,101166.91
2022-11-04T10:21:24.000Z,101166.28
2022-11-04T10:24:08.527Z,101157.06
2022-11-04T10:27:00.613Z,101162.84
2022-11-04T10:29:36.152Z,101164.84
2022-11-04T10:32:11.051Z,101163.50
2022-11-04T10:34:43.178Z,101151.41
2022-11-04T10:37:12.117Z,101158.59
2022-11-04T10:39:45.837Z,101150.88
2022-11-04T10:42:16.498Z,101158.41
2022-11-04T10:44:44.284Z,101151.50
2022-11-04T10:48:01.285Z,101152.81
2022-11-04T10:50:37.723Z,101147.09
2022-11-04T10:53:25.307Z,101151.91
2022-11-04T10:56:12.301Z,101147.59
2022-11-04T10:58:46.316Z,101137.88
2022-11-04T11:01:29.237Z,101132.25
2022-11-04T11:03:57.304Z,101125.50
2022-11-04T11:06:27.433Z,101139.81
2022-11-04T11:08:59.289Z,101134.03
2022-11-04T13:49:33.792Z,101146.88
2022-11-04T13:52:09.435Z,101138.84
2022-11-04T13:54:44.410Z,101140.56
2022-11-04T13:57:14.792Z,101145.34
2022-11-04T13:59:44.337Z,101139.38
2022-11-04T14:02:12.229Z,101145.03
2022-11-04T14:04:43.097Z,101149.44
2022-11-04T14:07:17.973Z,101149.97
2022-11-04T14:09:53.722Z,101148.41
2022-11-04T14:12:39.484Z,101152.69
2022-11-04T14:15:13.537Z,101153.38
2022-11-04T14:17:42.085Z,101147.75
2022-11-04T14:20:11.947Z,101147.59
2022-11-04T14:23:00.155Z,101147.25
2022-11-04T14:25:41.370Z,101142.81
2022-11-04T14:28:14.814Z,101142.59
2022-11-04T14:30:45.396Z,101148.56
2022-11-04T14:33:33.512Z,101152.97
2022-11-04T14:36:27.713Z,101154.34
2022-11-04T14:39:10.345Z,101153.69
2022-11-04T14:41:40.892Z,101148.38
2022-11-04T14:44:26.573Z,101160.47
2022-11-04T14:46:57.778Z,101153.31
2022-11-04T14:49:47.335Z,101162.50
2022-11-04T14:52:27.892Z,101155.72
2022-11-04T14:55:04.057Z,101153.31
2022-11-04T14:57:39.869Z,101150.06
2022-11-04T15:00:44.931Z,101160.44
2022-11-04T15:04:08.835Z,101155.34
2022-11-04T15:06:10.225Z,101143.25
2022-11-04T15:08:41.153Z,101142.72
2022-11-04T15:11:12.557Z,101141.03
2022-11-04T15:13:47.625Z,101142.34
2022-11-04T15:16:22.938Z,101136.41
2022-11-04T15:18:50.841Z,101142.69
2022-11-04T15:21:19.252Z,101138.94
2022-11-04T15:23:54.695Z,101145.06
2022-11-04T15:26:30.700Z,101138.72
2022-11-04T15:29:00.168Z,101147.06
2022-11-04T15:31:29.217Z,101149.41
2022-11-04T15:33:58.991Z,101145.66
2022-11-04T15:36:32.022Z,101148.56
2022-11-04T15:39:03.593Z,101133.41
2022-11-04T15:41:52.861Z,101141.25
2022-11-04T15:44:27.564Z,101143.28
2022-11-04T15:46:59.931Z,101142.94
2022-11-04T15:49:32.307Z,101142.59
2022-11-04T15:52:30.413Z,101151.81
2022-11-04T15:54:59.194Z,101145.19
2022-11-04T15:57:34.512Z,101135.69
2022-11-04T16:00:09.694Z,101134.84
2022-11-04T16:02:45.994Z,101139.97
2022-11-04T16:05:16.664Z,101138.56
2022-11-04T16:07:45.297Z,101145.06
2022-11-04T16:10:33.247Z,101147.78
2022-11-04T16:13:22.510Z,101139.97
2022-11-04T16:15:52.200Z,101143.53
2022-11-04T16:18:50.224Z,101147.44
2022-11-04T16:21:23.911Z,101148.97
2022-11-04T16:23:57.274Z,101144.25
2022-11-04T16:26:26.486Z,101145.44
2022-11-04T16:28:55.540Z,101152.78
2022-11-04T16:31:23.160Z,101147.81
2022-11-04T16:33:51.332Z,101145.09
2022-11-04T16:36:23.854Z,101155.66
2022-11-04T16:39:00.041Z,101151.56
2022-11-04T16:41:28.487Z,101153.13
2022-11-04T16:43:56.322Z,101150.22
2022-11-04T16:46:23.988Z,101155.16
2022-11-04T16:48:51.753Z,101156.53
2022-11-04T16:51:20.903Z,101154.28
2022-11-04T16:53:51.963Z,101161.28
2022-11-04T16:56:22.280Z,101164.00
2022-11-04T16:58:50.777Z,101157.22
2022-11-04T17:01:19.482Z,101161.47
2022-11-04T17:03:47.199Z,101162.47
2022-11-04T17:06:15.039Z,101155.19
2022-11-04T17:08:42.786Z,101159.09
2022-11-04T17:11:10.750Z,101161.81
2022-11-04T17:13:38.680Z,101156.91
2022-11-04T17:16:07.724Z,101162.81
2022-11-04T17:18:35.608Z,101158.06
2022-11-04T17:21:06.632Z,101166.25
2022-11-04T17:23:34.260Z,101156.88
2022-11-04T17:26:02.095Z,101159.06
2022-11-04T17:28:31.667Z,101166.72
2022-11-04T17:31:00.639Z,101165.19
2022-11-04T17:33:28.265Z,101161.63
2022-11-04T17:35:56.077Z,101153.94
2022-11-04T17:38:23.696Z,101149.53
2022-11-04T17:41:10.737Z,101142.88
2022-11-04T17:43:57.041Z,101142.19
2022-11-04T17:46:41.964Z,101143.69
2022-11-04T17:49:13.285Z,101126.66
2022-11-04T17:51:41.467Z,101127.13
2022-11-04T17:54:09.625Z,101128.84
2022-11-04T17:56:38.840Z,101125.94
2022-11-04T17:59:06.702Z,101121.84
2022-11-04T18:01:35.128Z,101120.31
2022-11-04T18:04:02.892Z,101130.34
2022-11-04T18:06:31.891Z,101129.81
2022-11-04T18:09:00.003Z,101116.75
2022-11-04T18:11:46.941Z,101128.97
2022-11-04T18:14:17.009Z,101131.19
2022-11-04T18:16:48.983Z,101135.59
2022-11-04T18:19:18.392Z,101129.34
2022-11-04T18:21:47.407Z,101120.63
2022-11-04T18:24:15.215Z,101123.91
2022-11-04T18:26:43.010Z,101121.69
2022-11-04T18:29:10.742Z,101128.84
2022-11-04T18:31:43.226Z,101131.22
2022-11-04T18:34:14.497Z,101136.31
2022-11-04T18:36:42.578Z,101139.03
2022-11-04T18:39:12.955Z,101143.66
2022-11-04T18:41:41.494Z,101142.59
2022-11-04T18:44:18.395Z,101143.66
2022-11-04T18:46:46.294Z,101145.00
2022-11-04T18:49:14.656Z,101152.84
2022-11-04T18:51:42.614Z,101153.91
2022-11-04T18:54:10.679Z,101157.47
2022-11-04T18:56:38.237Z,101155.25
2022-11-04T18:59:11.548Z,101158.31
2022-11-04T19:01:39.514Z,101171.94
2022-11-04T19:04:07.480Z,101173.31
2022-11-04T19:06:39.480Z,101173.13
2022-11-04T19:09:40.134Z,101179.09
2022-11-04T19:12:29.212Z,101180.81
2022-11-04T19:14:57.035Z,101184.38
2022-11-04T19:17:25.351Z,101179.78
2022-11-04T19:19:52.972Z,101184.03
2022-11-04T19:22:20.627Z,101175.00
2022-11-04T19:24:48.250Z,101185.25
2022-11-04T19:27:18.067Z,101187.66
2022-11-04T19:29:45.707Z,101185.59
2022-11-04T19:32:14.576Z,101195.50
2022-11-04T19:34:42.862Z,101192.06
2022-11-04T19:37:10.960Z,101188.66
2022-11-04T19:39:39.185Z,101190.19
2022-11-04T19:42:25.277Z,101194.09
2022-11-04T19:44:52.910Z,101190.34
2022-11-04T19:47:20.598Z,101184.25
2022-11-04T19:49:48.280Z,101181.50
2022-11-04T19:52:16.246Z,101183.19
2022-11-04T19:54:43.913Z,101179.44
2022-11-04T19:57:11.852Z,101179.28
2022-11-04T19:59:39.459Z,101176.91
2022-11-04T20:02:07.321Z,101176.03
2022-11-04T20:04:35.110Z,101177.38
2022-11-04T20:07:02.791Z,101172.63
2022-11-04T20:09:30.396Z,101171.75
2022-11-04T20:12:16.371Z,101179.75
2022-11-04T20:14:47.666Z,101174.66
2022-11-04T20:17:15.586Z,101177.03
2022-11-04T20:19:43.127Z,101174.31
2022-11-04T20:22:10.801Z,101177.19
2022-11-04T20:24:38.296Z,101176.34
2022-11-04T20:27:06.405Z,101180.78
2022-11-04T20:29:34.038Z,101169.00
2022-11-04T20:32:01.607Z,101173.41
2022-11-04T20:34:32.973Z,101167.41
2022-11-04T20:37:00.854Z,101172.72
2022-11-04T20:39:28.574Z,101166.75
2022-11-04T20:41:56.213Z,101172.69
2022-11-04T20:44:23.784Z,101171.47
2022-11-04T20:46:51.591Z,101175.22
2022-11-04T20:49:19.293Z,101174.72
2022-11-04T20:51:54.892Z,101179.28
2022-11-04T20:54:23.402Z,101166.69
2022-11-04T20:56:50.957Z,101176.84
2022-11-04T20:59:18.587Z,101171.03
2022-11-04T21:01:47.470Z,101174.25
2022-11-04T21:04:18.991Z,101173.44
2022-11-04T21:06:50.034Z,101174.81
2022-11-04T21:09:19.371Z,101168.31
2022-11-04T21:11:52.984Z,101165.56
2022-11-04T21:14:23.319Z,101156.72
2022-11-04T21:16:53.243Z,101156.09
2022-11-04T21:19:22.120Z,101154.19
2022-11-04T21:21:49.900Z,101152.19
2022-11-04T21:24:17.690Z,101154.91
2022-11-04T21:26:46.813Z,101158.47
2022-11-04T21:29:16.808Z,101161.03
2022-11-04T21:31:44.738Z,101151.00
2022-11-04T21:34:12.529Z,101155.59
2022-11-04T21:36:40.381Z,101153.56
2022-11-04T21:39:11.193Z,101160.66
2022-11-04T21:41:39.239Z,101154.00
2022-11-04T21:44:08.566Z,101161.53
2022-11-04T21:46:38.245Z,101156.91
2022-11-04T21:49:05.916Z,101148.75
2022-11-04T21:51:34.407Z,101161.47
2022-11-04T21:54:05.081Z,101153.50
2022-11-04T21:56:33.620Z,101149.91
2022-11-04T21:59:01.170Z,101164.88
2022-11-04T22:01:29.898Z,101169.63
2022-11-04T22:04:01.935Z,101168.09
2022-11-04T22:06:34.815Z,101164.81
2022-11-04T22:09:04.377Z,101162.81
2022-11-04T22:11:32.629Z,101167.72
2022-11-04T22:14:04.804Z,101161.72
2022-11-04T22:16:33.934Z,101164.44
2022-11-04T22:19:05.932Z,101172.94
2022-11-04T22:21:33.992Z,101166.13
2022-11-04T22:24:02.260Z,101171.88
2022-11-04T22:26:31.399Z,101172.78
2022-11-04T22:28:59.235Z,101172.41
2022-11-04T22:31:31.050Z,101168.88
2022-11-04T22:33:58.818Z,101173.94
2022-11-04T22:36:26.683Z,101170.56
2022-11-04T22:38:54.688Z,101171.25
2022-11-04T22:41:24.271Z,101173.63
2022-11-04T22:43:51.847Z,101162.41
2022-11-04T22:46:21.856Z,101167.66
2022-11-04T22:48:51.800Z,101171.06
2022-11-04T22:51:19.916Z,101173.94
2022-11-04T22:53:56.626Z,101174.28
2022-11-04T22:56:26.447Z,101172.59
2022-11-04T22:58:54.635Z,101173.28
2022-11-04T23:01:22.597Z,101173.28
2022-11-04T23:03:51.462Z,101175.31
2022-11-04T23:06:19.471Z,101173.91
2022-11-04T23:08:47.132Z,101168.47
2022-11-04T23:11:38.882Z,101170.00
2022-11-04T23:14:24.947Z,101175.31
2022-11-04T23:17:11.157Z,101171.56
2022-11-04T23:19:40.286Z,101176.97
2022-11-04T23:22:26.571Z,101184.44
2022-11-04T23:25:05.944Z,101184.75
2022-11-04T23:27:59.321Z,101172.25
2022-11-04T23:30:27.135Z,101177.16
2022-11-04T23:32:56.462Z,101178.81
2022-11-04T23:35:44.588Z,101178.97
2022-11-04T23:38:12.327Z,101182.53
2022-11-04T23:40:40.082Z,101185.63
2022-11-04T23:43:08.020Z,101190.50
2022-11-04T23:45:55.186Z,101192.06
2022-11-04T23:48:41.381Z,101193.59
2022-11-04T23:51:27.942Z,101202.63
2022-11-04T23:54:13.983Z,101195.63
2022-11-04T23:57:00.122Z,101201.75
2022-11-04T23:59:46.190Z,101198.22
